Airfield :
LOGIN :

Register | Disclaimer

   EN    FR    IT 

 










Legend :    VFR   Marginal VFR   IFR   Intensive IFR   Very Intensive IFR
Visi :
Ceiling :
>= 8 km
>= 3000ft
5 to 8 km
1000 to 3000 ft
1500m to 5 km
500 to 1000 ft
800 to 1500m
200 to 500 ft
< 800m
< 200 ft
Symbols :   Thunderstorms  Fog  Heavy snow  Heavy precipitations  Wind > 20 kt
SIGMETs :     Misc.  Thunderstorms  Icing  Turbulence  Mountain Waves  Volcanic Ashes






- Airport Elevation : 238 ft
- IATA code : FAB


EGLF - Farnborough

CURRENT METAR :
  • 021820Z AUTO VRB03KT 9999 NCD 16/12 Q1014

EXPIRED METARs :
  • 021750Z AUTO 10004KT 070V140 9999 NCD 16/12 Q1014
  • 021720Z AUTO 12006KT 100V160 9999 NCD 16/11 Q1014
  • 021650Z AUTO 16007KT 130V190 9999 NCD 16/11 Q1014
  • 021620Z AUTO 13006KT 090V170 9999 SCT021/// 17/12 Q1014
  • 021550Z AUTO 15006KT 120V180 9999 FEW019/// 17/12 Q1014

TAF TAF EGLF
Valid from the 02 at 18:00 until the 02 at 23:00 UTC


021655Z 0218/0223 14004KT 9999 FEW030
PROB30
TEMPO 0218/0221 4000 +SHRA
ATIS : +44 09063 800 400 (*282)



MET'MAP, your aeronautical weather chart ! - Copyright ORBIFLY December 2007 - Disclaimer

ORBIFLY MET'MAP TEAM :

Programming & Development : Alexandra Zaïnal
Concept & original design : Baudouin d'Aumeries
Assistance for programming : Marc-Olivier Méhu
Technical & hardware support : Manuel Goepfert

Contact : metmap@orbifly.com




SOURCES & CREDITS :

   NOAA